Search for airport 
image banner adimage banner adimage banner ad
image banner ad

2CA0 - Ash Mountain

Located in Three Rivers, United States

ICAO - 2CA0, IATA -

Data provided by Airmate  

General information

Coordinates: N36°29'13" W118°50'24"
Elevation is 1690 feet MSL.
Magnetic variation is 15° East
View others Airports in California

Operational data

Special qualification required
Current time UTC:
Current local time:
Weather at : KVIS - Visalia Muni ( 53 km )
METAR: KVIS 141256Z AUTO 25003KT 10SM CLR 18/14 A2999 RMK AO2 SLP158 T01780144
TAF: KVIS 141120Z 1412/1512 30009KT P6SM SKC FM150200 31013G19KT P6SM SKC
View NOTAMs / SUP AIP / TFR affecting this airport [VIEW]
Communications frequencies: [VIEW]

Runways:

Airport contact information

Address: Three Rivers United States

Satellite view of 2CA0